Time;durP1;ratioP1;P1;durP2;ratioP2;P2;SDS_P1;SDS_P2;PMS_P1;PMS_P2;Temp;Humidity;BMP_temperature;BMP_pressure;BME280_temperature;BME280_humidity;BME280_pressure;Samples;Min_cycle;Max_cycle;Signal;HPM_P1;HPM_P2
2023/04/18 00:01:45;;;;;;;13.20;9.75;;;;;;;5.04;84.79;100019.63;5057299;28;20068;-59
2023/04/18 00:04:13;;;;;;;15.52;9.68;;;;;;;5.11;86.01;100023.19;5053796;28;20053;-59
2023/04/18 00:06:40;;;;;;;13.40;8.77;;;;;;;4.90;88.77;100016.00;5047915;28;20051;-58
2023/04/18 00:09:07;;;;;;;14.32;8.52;;;;;;;5.02;85.99;100019.84;5046767;28;20661;-59
2023/04/18 00:11:34;;;;;;;14.30;7.55;;;;;;;5.03;85.47;100020.66;5052156;28;20040;-59
2023/04/18 00:14:02;;;;;;;11.35;7.05;;;;;;;5.09;83.91;100011.91;5052005;28;20045;-59
2023/04/18 00:16:31;;;;;;;12.30;7.38;;;;;;;5.10;83.34;100024.22;5055813;28;20414;-59
2023/04/18 00:18:58;;;;;;;11.60;7.07;;;;;;;5.26;85.48;100016.00;5059910;28;20060;-59
2023/04/18 00:21:25;;;;;;;15.20;8.45;;;;;;;5.52;85.96;100009.31;5050062;28;20060;-59
2023/04/18 00:23:52;;;;;;;11.10;6.65;;;;;;;5.45;80.18;100011.09;5057213;28;20445;-58
2023/04/18 00:26:20;;;;;;;12.55;7.57;;;;;;;5.43;79.69;100005.13;5053842;28;20488;-59
2023/04/18 00:28:48;;;;;;;12.63;7.82;;;;;;;5.46;80.23;100010.06;5054323;28;20057;-59
2023/04/18 00:31:17;;;;;;;11.00;7.70;;;;;;;5.30;81.43;100003.97;5068906;28;20049;-58
2023/04/18 00:33:46;;;;;;;12.63;7.30;;;;;;;5.14;82.38;100002.41;5052875;28;20044;-58
2023/04/18 00:36:12;;;;;;;14.93;7.68;;;;;;;5.00;84.26;100013.06;5058640;28;20064;-58
2023/04/18 00:38:41;;;;;;;13.38;8.70;;;;;;;4.76;83.52;100007.03;5070322;28;20071;-58
2023/04/18 00:41:08;;;;;;;11.73;7.90;;;;;;;4.41;85.90;100017.41;5054778;28;20459;-59
2023/04/18 00:43:36;;;;;;;11.95;8.02;;;;;;;4.49;88.61;100014.69;5051173;28;20076;-59
2023/04/18 00:46:03;;;;;;;12.75;8.57;;;;;;;4.42;86.46;100019.06;5055826;28;20130;-58
2023/04/18 00:48:30;;;;;;;14.38;9.45;;;;;;;4.33;87.55;100017.50;5053889;28;20391;-59
2023/04/18 00:50:59;;;;;;;14.77;8.82;;;;;;;4.33;87.40;100010.38;5051014;28;20535;-59
2023/04/18 00:53:26;;;;;;;14.68;9.48;;;;;;;4.29;87.66;100018.88;5055001;28;20041;-59
2023/04/18 00:55:53;;;;;;;12.73;9.13;;;;;;;4.27;88.93;100015.59;5059491;28;20438;-59
2023/04/18 00:58:20;;;;;;;12.77;8.85;;;;;;;4.07;87.66;100010.81;5071972;28;20139;-59
2023/04/18 01:00:47;;;;;;;12.77;9.13;;;;;;;4.14;88.83;100010.06;5055053;28;20041;-58
2023/04/18 01:03:16;;;;;;;14.52;9.70;;;;;;;4.36;89.09;100003.88;5053328;28;20110;-59
2023/04/18 01:05:44;;;;;;;16.08;9.35;;;;;;;4.36;87.25;100013.66;5064478;28;20066;-59
2023/04/18 01:08:12;;;;;;;14.57;8.77;;;;;;;4.63;87.25;100009.53;5052862;28;20713;-58
2023/04/18 01:10:40;;;;;;;13.32;9.27;;;;;;;4.38;86.20;100012.47;5059632;28;20266;-59
2023/04/18 01:13:12;;;;;;;16.80;9.70;;;;;;;4.35;88.56;100012.84;5055264;28;20103;-59
2023/04/18 01:15:40;;;;;;;13.63;9.23;;;;;;;4.36;89.04;100009.19;5050296;28;20059;-59
2023/04/18 01:18:08;;;;;;;13.13;9.02;;;;;;;4.26;87.18;100004.13;5071193;28;20037;-59
2023/04/18 01:20:37;;;;;;;14.60;9.25;;;;;;;4.26;89.60;100008.63;5057536;28;20049;-59
2023/04/18 01:23:04;;;;;;;13.98;9.30;;;;;;;4.01;88.42;100000.91;5054123;28;20146;-59
2023/04/18 01:25:36;;;;;;;14.90;8.80;;;;;;;4.46;87.28;99995.63;5058340;28;20561;-59
2023/04/18 01:28:03;;;;;;;13.85;8.60;;;;;;;4.52;84.71;99994.91;5050741;28;20040;-58
2023/04/18 01:30:30;;;;;;;16.73;7.70;;;;;;;4.50;85.30;99995.09;5061530;28;20127;-59
2023/04/18 01:32:59;;;;;;;11.07;8.15;;;;;;;4.56;85.60;99990.03;5058836;28;20081;-58
2023/04/18 01:35:27;;;;;;;16.67;8.90;;;;;;;4.58;84.62;99990.69;5056246;28;20602;-59
2023/04/18 01:37:56;;;;;;;19.60;8.80;;;;;;;4.60;84.73;99986.84;5055385;28;20048;-59
2023/04/18 01:40:23;;;;;;;15.52;9.30;;;;;;;4.52;87.17;99982.44;5053657;28;20087;-59
2023/04/18 01:42:51;;;;;;;20.67;9.23;;;;;;;4.39;87.22;99976.94;5059674;28;20075;-59
2023/04/18 01:45:19;;;;;;;13.45;8.70;;;;;;;4.24;86.89;99984.09;5059224;28;20413;-59
2023/04/18 01:47:46;;;;;;;19.58;9.80;;;;;;;4.47;89.29;99974.22;5051980;28;20068;-59
2023/04/18 01:50:13;;;;;;;12.10;8.73;;;;;;;3.98;88.10;99981.91;5058293;28;20055;-59
2023/04/18 01:52:40;;;;;;;15.55;9.35;;;;;;;3.93;90.19;99976.31;5063850;28;20045;-59
2023/04/18 01:55:08;;;;;;;14.85;10.13;;;;;;;3.96;92.45;99982.06;5054519;28;20037;-59
2023/04/18 01:57:36;;;;;;;13.07;9.27;;;;;;;3.78;91.99;99978.94;5064474;28;20167;-59
2023/04/18 02:00:06;;;;;;;13.98;9.90;;;;;;;3.75;91.51;99981.94;5062658;28;20121;-59
2023/04/18 02:02:42;;;;;;;18.60;10.07;;;;;;;3.62;93.75;99979.88;5057909;28;20416;-59
2023/04/18 02:05:10;;;;;;;17.85;9.25;;;;;;;3.44;92.89;99980.19;5053393;28;20084;-59
2023/04/18 02:07:41;;;;;;;13.80;9.63;;;;;;;3.40;93.43;99986.88;5077677;28;20055;-59
2023/04/18 02:10:12;;;;;;;16.30;9.93;;;;;;;3.41;94.62;99980.56;5061644;28;20037;-59
2023/04/18 02:12:39;;;;;;;14.82;9.73;;;;;;;3.24;94.32;99978.03;5037760;28;20041;-58
2023/04/18 02:15:09;;;;;;;14.38;8.82;;;;;;;3.06;94.43;99980.13;5054638;28;20049;-59
2023/04/18 02:17:36;;;;;;;20.83;9.38;;;;;;;3.00;95.11;99972.91;5077093;28;20538;-59
2023/04/18 02:20:04;;;;;;;13.65;9.30;;;;;;;2.99;95.81;99974.72;5051567;28;20041;-60
2023/04/18 02:22:34;;;;;;;13.70;8.93;;;;;;;2.89;95.84;99973.28;5060449;28;20055;-59
2023/04/18 02:25:02;;;;;;;14.93;9.07;;;;;;;2.95;96.24;99977.91;5062051;28;20045;-60
2023/04/18 02:27:31;;;;;;;13.57;9.05;;;;;;;3.01;96.64;99983.31;5063166;28;20651;-59
2023/04/18 02:29:58;;;;;;;12.73;8.60;;;;;;;3.08;96.31;99972.03;5053134;28;20055;-60
2023/04/18 02:32:26;;;;;;;16.35;8.75;;;;;;;3.08;97.00;99975.50;5054255;28;20053;-59
2023/04/18 02:34:53;;;;;;;17.45;10.80;;;;;;;3.29;100.00;99974.84;5053090;28;20049;-59
2023/04/18 02:37:20;;;;;;;19.23;10.40;;;;;;;3.53;96.00;99976.50;5052012;28;20105;-59
2023/04/18 02:39:47;;;;;;;16.70;9.63;;;;;;;3.69;95.68;99975.50;5040983;28;20139;-59
2023/04/18 02:42:14;;;;;;;21.55;10.23;;;;;;;3.93;95.39;99979.78;5058775;28;20555;-59
2023/04/18 02:44:41;;;;;;;18.17;9.57;;;;;;;3.68;92.47;99981.84;5061276;28;21029;-59
2023/04/18 02:47:09;;;;;;;14.43;9.30;;;;;;;3.49;95.09;99983.13;5073714;28;20411;-59
2023/04/18 02:49:41;;;;;;;20.17;10.07;;;;;;;3.20;93.83;99982.03;5061480;28;20055;-59
2023/04/18 02:52:08;;;;;;;15.77;9.18;;;;;;;3.52;99.79;99980.16;5056282;28;20068;-59
2023/04/18 02:54:35;;;;;;;19.13;9.65;;;;;;;3.58;99.09;99990.03;5059264;28;20121;-59
2023/04/18 02:57:07;;;;;;;17.50;10.23;;;;;;;3.44;95.96;99982.84;5058881;28;20111;-59
2023/04/18 02:59:57;;;;;;;15.00;9.65;;;;;;;3.44;95.97;99982.84;5059416;28;20449;-59
2023/04/18 03:02:42;;;;;;;15.43;10.30;;;;;;;3.32;95.98;99981.63;5054045;28;20158;-59
2023/04/18 03:05:34;;;;;;;15.75;10.57;;;;;;;3.27;96.64;99982.16;5049447;28;20061;-59
2023/04/18 03:08:03;;;;;;;15.57;10.25;;;;;;;3.28;97.49;99980.34;5054145;28;20036;-59
2023/04/18 03:10:31;;;;;;;15.40;10.35;;;;;;;3.43;98.56;99978.56;5059870;28;20427;-59
2023/04/18 03:12:58;;;;;;;14.85;9.75;;;;;;;3.36;97.27;99980.28;5061222;28;20479;-59
2023/04/18 03:15:25;;;;;;;15.27;9.95;;;;;;;3.32;95.43;99981.63;5054896;28;20410;-59
2023/04/18 03:17:53;;;;;;;18.27;9.90;;;;;;;3.28;94.80;99978.50;5057202;28;20063;-60
2023/04/18 03:20:23;;;;;;;17.00;10.25;;;;;;;3.38;97.40;99980.91;5048778;28;20064;-58
2023/04/18 03:22:53;;;;;;;15.35;9.52;;;;;;;2.96;94.74;99976.88;5059409;28;20565;-59
2023/04/18 03:25:24;;;;;;;18.45;9.90;;;;;;;2.93;96.32;99985.19;5056056;28;20044;-59
2023/04/18 03:27:53;;;;;;;18.95;10.35;;;;;;;3.01;97.35;99971.88;5055444;28;20393;-59
2023/04/18 03:30:22;;;;;;;19.33;10.98;;;;;;;2.86;96.24;99984.22;5060786;28;20121;-60
2023/04/18 03:32:54;;;;;;;16.35;10.23;;;;;;;2.90;98.80;99985.53;5042425;28;20045;-59
2023/04/18 03:35:21;;;;;;;20.40;10.43;;;;;;;3.01;100.00;99979.84;5056369;28;20045;-59
2023/04/18 03:37:49;;;;;;;18.00;10.50;;;;;;;2.98;97.37;99982.84;5060035;28;20051;-58
2023/04/18 03:40:25;;;;;;;16.92;10.65;;;;;;;2.72;97.23;99983.97;5059586;28;20044;-60
2023/04/18 03:42:55;;;;;;;14.40;10.88;;;;;;;2.66;100.00;99978.53;5052900;28;20343;-60
2023/04/18 03:45:22;;;;;;;16.15;11.15;;;;;;;2.51;99.00;99981.91;5054479;28;20044;-59
2023/04/18 03:47:52;;;;;;;20.42;11.70;;;;;;;2.58;99.60;99987.34;5058683;28;20036;-59
2023/04/18 03:50:23;;;;;;;21.20;11.73;;;;;;;2.47;98.66;99980.63;5055328;28;20567;-58
2023/04/18 03:52:51;;;;;;;19.35;12.23;;;;;;;2.47;99.42;99983.25;5059044;28;20155;-60
2023/04/18 03:55:18;;;;;;;15.57;10.70;;;;;;;2.56;100.00;99994.63;5051700;28;20064;-60
2023/04/18 03:57:47;;;;;;;17.58;10.77;;;;;;;2.36;100.00;99983.63;5051694;28;20475;-60
2023/04/18 04:00:21;;;;;;;17.23;11.70;;;;;;;2.49;100.00;99986.53;5075176;28;20505;-57
2023/04/18 04:02:58;;;;;;;14.82;10.90;;;;;;;2.40;100.00;99986.72;5062123;28;20037;-59
2023/04/18 04:05:25;;;;;;;16.13;10.50;;;;;;;2.46;100.00;99991.34;5052293;28;20065;-59
2023/04/18 04:07:52;;;;;;;16.42;11.43;;;;;;;2.54;100.00;99986.03;5049261;28;20041;-59
2023/04/18 04:10:19;;;;;;;15.55;10.38;;;;;;;2.61;100.00;99986.19;5061204;28;20095;-59
2023/04/18 04:12:49;;;;;;;15.75;10.82;;;;;;;2.41;100.00;99991.88;5059671;28;20041;-59
2023/04/18 04:15:17;;;;;;;18.50;11.40;;;;;;;2.46;100.00;99994.00;5060830;28;20106;-60
2023/04/18 04:17:55;;;;;;;19.85;11.07;;;;;;;2.36;100.00;99984.44;5054574;28;20053;-59
2023/04/18 04:20:23;;;;;;;22.92;12.02;;;;;;;2.41;100.00;99999.00;5055702;28;20048;-59
2023/04/18 04:22:57;;;;;;;19.88;11.57;;;;;;;2.50;100.00;99990.84;5060246;28;20102;-59
2023/04/18 04:25:27;;;;;;;17.52;11.07;;;;;;;2.67;100.00;100006.66;5062891;28;20546;-60
2023/04/18 04:27:56;;;;;;;19.85;10.70;;;;;;;2.91;100.00;100011.00;5056136;28;20050;-60
2023/04/18 04:30:25;;;;;;;15.57;10.47;;;;;;;3.07;100.00;100005.63;5059001;28;20335;-59
2023/04/18 04:32:52;;;;;;;15.63;11.15;;;;;;;3.31;100.00;100003.81;5052808;28;20679;-59
2023/04/18 04:35:19;;;;;;;18.98;11.32;;;;;;;2.81;99.39;100006.75;5059518;28;20128;-60
2023/04/18 04:37:46;;;;;;;18.70;11.48;;;;;;;2.64;100.00;100013.09;5056753;28;20068;-61
2023/04/18 04:40:23;;;;;;;17.70;11.55;;;;;;;2.77;100.00;100010.75;5050719;28;20113;-59
2023/04/18 04:42:57;;;;;;;17.17;10.80;;;;;;;3.30;100.00;100012.78;5057431;28;20050;-59
2023/04/18 04:45:33;;;;;;;21.88;11.65;;;;;;;3.44;100.00;100017.31;5055291;28;20040;-59
2023/04/18 04:48:00;;;;;;;21.05;11.45;;;;;;;3.86;98.43;100013.31;5060075;28;20052;-59
2023/04/18 04:50:27;;;;;;;16.83;11.50;;;;;;;4.10;93.34;100021.06;5059152;28;20049;-59
2023/04/18 04:52:54;;;;;;;23.67;15.57;;;;;;;4.54;92.38;100032.69;5062432;28;20045;-59
2023/04/18 04:55:21;;;;;;;27.70;17.20;;;;;;;4.49;90.01;100037.72;5056221;28;20498;-59
2023/04/18 04:57:50;;;;;;;24.55;15.57;;;;;;;5.26;88.83;100031.13;5051207;28;20616;-59
2023/04/18 05:00:32;;;;;;;20.17;12.13;;;;;;;5.15;87.52;100032.44;5056354;28;20562;-59
2023/04/18 05:03:00;;;;;;;22.98;11.70;;;;;;;5.19;91.08;100041.66;5072516;28;20057;-58
2023/04/18 05:05:28;;;;;;;20.02;11.90;;;;;;;5.21;86.31;100034.34;5072168;28;20049;-59
2023/04/18 05:07:55;;;;;;;21.33;12.05;;;;;;;5.38;85.83;100041.06;5056644;28;20126;-59
2023/04/18 05:10:22;;;;;;;22.27;13.32;;;;;;;5.73;87.37;100049.19;5055754;28;20063;-59
2023/04/18 05:12:50;;;;;;;19.35;12.85;;;;;;;6.12;82.57;100042.59;5061653;28;20043;-59
2023/04/18 05:15:17;;;;;;;20.25;12.43;;;;;;;6.17;81.75;100040.16;5055904;28;20045;-60
2023/04/18 05:17:46;;;;;;;17.88;10.88;;;;;;;7.00;76.39;100042.88;5056815;28;20453;-59
2023/04/18 05:20:13;;;;;;;16.85;10.23;;;;;;;7.01;75.94;100047.19;5057384;28;20098;-59
2023/04/18 05:22:40;;;;;;;16.42;10.90;;;;;;;7.15;76.05;100052.56;5062315;28;20036;-59
2023/04/18 05:25:08;;;;;;;20.77;11.13;;;;;;;7.68;73.06;100048.19;5059801;28;20446;-58
2023/04/18 05:27:35;;;;;;;17.17;11.60;;;;;;;8.57;71.31;100048.78;5053264;28;20303;-59
2023/04/18 05:30:04;;;;;;;18.88;11.30;;;;;;;8.94;67.33;100051.78;5055820;28;20146;-60
2023/04/18 05:32:31;;;;;;;21.60;12.88;;;;;;;7.99;71.04;100055.59;5059196;28;20040;-59
2023/04/18 05:35:00;;;;;;;22.95;13.32;;;;;;;9.38;69.13;100061.63;5059787;28;20041;-59
2023/04/18 05:37:27;;;;;;;19.77;11.82;;;;;;;9.51;65.60;100063.44;5058338;28;20052;-59
2023/04/18 05:39:54;;;;;;;18.88;12.95;;;;;;;9.96;66.31;100055.31;5059480;28;20048;-59
2023/04/18 05:42:21;;;;;;;16.42;11.63;;;;;;;8.59;69.36;100054.75;5056957;28;20760;-59
2023/04/18 05:44:49;;;;;;;16.27;10.52;;;;;;;7.67;72.79;100064.41;5059139;28;20123;-59
2023/04/18 05:47:16;;;;;;;17.98;11.20;;;;;;;7.81;73.66;100066.03;5056854;28;20198;-59
2023/04/18 05:49:43;;;;;;;16.50;10.55;;;;;;;8.67;69.84;100065.22;5052141;28;20503;-58
2023/04/18 05:52:12;;;;;;;15.38;10.63;;;;;;;8.49;71.16;100065.88;5052639;28;20282;-59
2023/04/18 05:54:40;;;;;;;18.23;12.25;;;;;;;7.51;73.95;100071.78;5059478;28;20371;-59
2023/04/18 05:57:07;;;;;;;20.90;11.35;;;;;;;6.82;77.81;100077.25;5056286;28;20043;-58
2023/04/18 05:59:35;;;;;;;23.02;12.48;;;;;;;7.66;76.29;100070.75;5060897;28;20139;-59
2023/04/18 06:02:02;;;;;;;21.35;11.93;;;;;;;9.07;69.61;100078.44;5056691;28;20132;-59
2023/04/18 06:04:30;;;;;;;20.10;11.73;;;;;;;10.04;64.80;100073.78;5054052;28;21418;-59
2023/04/18 06:06:57;;;;;;;21.02;12.48;;;;;;;11.29;59.57;100078.06;5048874;28;20044;-59
2023/04/18 06:09:26;;;;;;;22.25;12.93;;;;;;;12.10;57.46;100075.88;5053189;28;20045;-59
2023/04/18 06:11:53;;;;;;;19.23;13.40;;;;;;;12.93;54.53;100064.06;5055248;28;20045;-60
2023/04/18 06:14:20;;;;;;;19.65;13.50;;;;;;;13.98;51.82;100075.47;5057651;28;20052;-58
2023/04/18 06:16:47;;;;;;;25.85;14.63;;;;;;;14.71;50.69;100074.72;5059358;28;20067;-59
2023/04/18 06:19:15;;;;;;;21.13;14.23;;;;;;;14.66;49.90;100072.75;5054148;28;20048;-59
2023/04/18 06:21:42;;;;;;;19.60;14.13;;;;;;;15.28;49.32;100080.56;5057127;28;20079;-59
2023/04/18 06:24:10;;;;;;;17.33;12.27;;;;;;;13.14;53.20;100078.75;5055362;28;20037;-59
2023/04/18 06:26:38;;;;;;;17.98;11.32;;;;;;;13.58;54.06;100068.31;5053187;28;20126;-59
2023/04/18 06:29:05;;;;;;;16.33;11.05;;;;;;;14.29;52.27;100065.16;5058841;28;20048;-59
2023/04/18 06:31:32;;;;;;;17.05;11.23;;;;;;;14.77;51.85;100071.81;5058022;28;20499;-59
2023/04/18 06:33:59;;;;;;;16.30;11.05;;;;;;;14.55;52.89;100070.97;5057283;28;20071;-59
2023/04/18 06:36:26;;;;;;;14.77;11.02;;;;;;;13.48;55.45;100062.75;5051251;28;20423;-59
2023/04/18 06:38:53;;;;;;;17.13;10.90;;;;;;;13.76;54.61;100069.16;5053086;28;20347;-59
2023/04/18 06:41:21;;;;;;;14.73;9.93;;;;;;;13.04;55.49;100070.47;5055215;28;20151;-59
2023/04/18 06:43:49;;;;;;;15.45;10.82;;;;;;;13.78;54.53;100061.66;5062443;28;20068;-59
2023/04/18 06:46:17;;;;;;;17.60;10.70;;;;;;;14.01;54.31;100058.81;5062863;28;20113;-59
2023/04/18 06:48:44;;;;;;;13.25;9.57;;;;;;;14.57;52.49;100079.63;5055289;28;20040;-59
2023/04/18 06:51:12;;;;;;;16.48;10.63;;;;;;;13.37;54.89;100075.19;5057761;28;20462;-59
2023/04/18 06:53:40;;;;;;;12.95;9.82;;;;;;;14.08;53.82;100069.44;5057150;28;20044;-59
2023/04/18 06:56:07;;;;;;;15.95;10.98;;;;;;;12.92;56.61;100072.34;5061049;28;20041;-59
2023/04/18 06:58:34;;;;;;;16.08;9.93;;;;;;;13.99;53.30;100070.91;5068771;28;20053;-59
2023/04/18 07:01:03;;;;;;;17.58;10.27;;;;;;;13.23;54.90;100072.97;5059287;28;20048;-59
2023/04/18 07:03:30;;;;;;;14.18;10.13;;;;;;;13.78;54.50;100080.53;5054567;28;20036;-59
2023/04/18 07:05:57;;;;;;;15.55;9.85;;;;;;;12.34;59.13;100078.63;5058415;28;20078;-59
2023/04/18 07:08:24;;;;;;;18.60;11.43;;;;;;;13.64;54.76;100079.19;5060090;28;20048;-60
2023/04/18 07:10:52;;;;;;;21.77;11.07;;;;;;;13.46;55.15;100083.69;5056596;28;20385;-60
2023/04/18 07:13:19;;;;;;;12.23;9.57;;;;;;;12.83;55.78;100079.16;5056618;28;20046;-61
2023/04/18 07:15:46;;;;;;;15.40;10.07;;;;;;;12.94;55.93;100083.72;5060742;28;20044;-60
2023/04/18 07:18:14;;;;;;;14.45;10.07;;;;;;;12.32;58.15;100086.09;5059519;28;20613;-59
2023/04/18 07:20:41;;;;;;;16.70;9.82;;;;;;;10.55;64.94;100083.44;5060022;28;20040;-59
2023/04/18 07:23:09;;;;;;;15.35;8.90;;;;;;;9.34;70.32;100091.72;5051746;28;20045;-59
2023/04/18 07:25:37;;;;;;;16.23;9.73;;;;;;;9.17;71.58;100091.38;5057515;28;20306;-59
2023/04/18 07:28:04;;;;;;;15.05;9.10;;;;;;;8.88;71.78;100088.16;5056484;28;20068;-59
2023/04/18 07:30:31;;;;;;;14.82;9.50;;;;;;;10.09;68.96;100081.97;5054448;28;20075;-59
2023/04/18 07:32:58;;;;;;;20.00;9.85;;;;;;;9.35;69.98;100091.50;5058929;28;20033;-60
2023/04/18 07:35:26;;;;;;;11.25;8.52;;;;;;;8.79;71.88;100087.59;5056028;28;20135;-60
2023/04/18 07:37:54;;;;;;;14.18;8.85;;;;;;;9.45;70.17;100091.03;5057752;28;20596;-58
2023/04/18 07:40:21;;;;;;;13.75;8.98;;;;;;;8.66;72.28;100106.31;5052454;28;20369;-58
2023/04/18 07:42:48;;;;;;;15.35;9.32;;;;;;;8.45;74.38;100090.53;5053268;28;20069;-59
2023/04/18 07:45:15;;;;;;;13.65;9.30;;;;;;;9.61;70.03;100087.03;5055320;28;20048;-58
2023/04/18 07:47:42;;;;;;;11.98;7.88;;;;;;;9.15;70.69;100104.94;5057576;28;20044;-58
2023/04/18 07:50:11;;;;;;;13.88;9.20;;;;;;;9.24;70.13;100100.19;5053382;28;20055;-59
2023/04/18 07:52:46;;;;;;;14.48;7.70;;;;;;;9.05;70.66;100104.56;5059013;28;20032;-59
2023/04/18 07:55:13;;;;;;;12.70;8.05;;;;;;;9.15;70.17;100096.94;5041424;28;20029;-59
2023/04/18 07:57:42;;;;;;;12.85;8.02;;;;;;;8.79;71.89;100092.94;5071593;28;20045;-59
2023/04/18 08:00:11;;;;;;;14.25;8.20;;;;;;;8.81;73.03;100111.41;5058937;28;20064;-59
2023/04/18 08:02:41;;;;;;;12.63;8.02;;;;;;;8.87;72.07;100115.13;5054645;28;20076;-60
2023/04/18 08:05:09;;;;;;;13.20;8.77;;;;;;;8.87;72.11;100109.78;5049786;28;20044;-60
2023/04/18 08:07:36;;;;;;;12.15;7.53;;;;;;;9.00;71.39;100120.44;5060202;28;20128;-59
2023/04/18 08:10:05;;;;;;;14.07;8.43;;;;;;;8.91;72.81;100111.84;5058249;28;20572;-59
2023/04/18 08:12:32;;;;;;;12.73;8.27;;;;;;;8.61;73.17;100127.50;5053187;28;20118;-59
2023/04/18 08:15:00;;;;;;;14.15;8.23;;;;;;;8.82;72.73;100107.75;5059717;28;20048;-59
2023/04/18 08:17:27;;;;;;;13.50;8.30;;;;;;;8.40;74.32;100110.66;5056208;28;20044;-60
2023/04/18 08:19:54;;;;;;;13.52;8.35;;;;;;;8.60;74.68;100116.00;5050416;28;20052;-60
2023/04/18 08:22:21;;;;;;;12.77;8.00;;;;;;;8.16;76.12;100124.59;5052821;28;20037;-59
2023/04/18 08:24:52;;;;;;;13.55;8.77;;;;;;;8.41;75.24;100117.66;5054041;28;20469;-60
2023/04/18 08:27:22;;;;;;;14.23;9.07;;;;;;;8.26;75.92;100130.34;5056951;28;20124;-60
2023/04/18 08:29:49;;;;;;;12.57;8.48;;;;;;;8.17;76.91;100120.91;5051669;28;20103;-60
2023/04/18 08:32:16;;;;;;;18.48;9.43;;;;;;;8.16;77.54;100124.59;5058607;28;20036;-59
2023/04/18 08:34:45;;;;;;;15.13;8.70;;;;;;;8.02;78.14;100120.28;5061400;28;20076;-59
2023/04/18 08:37:12;;;;;;;13.70;9.43;;;;;;;8.03;78.71;100120.06;5057264;28;20037;-60
2023/04/18 08:39:43;;;;;;;14.85;9.40;;;;;;;8.00;78.26;100123.16;5053279;28;20037;-59
2023/04/18 08:42:10;;;;;;;14.35;8.80;;;;;;;8.04;77.96;100124.41;5063860;28;20413;-59
2023/04/18 08:44:39;;;;;;;14.25;8.88;;;;;;;7.88;79.21;100138.94;5061345;28;20421;-60
2023/04/18 08:47:08;;;;;;;13.30;8.30;;;;;;;8.07;79.04;100131.19;5057547;28;20502;-59
2023/04/18 08:49:35;;;;;;;14.73;8.15;;;;;;;8.19;78.15;100132.22;5061312;28;20040;-58
2023/04/18 08:52:03;;;;;;;12.95;8.63;;;;;;;8.30;77.85;100126.25;5060157;28;20737;-59
2023/04/18 08:54:31;;;;;;;13.52;8.77;;;;;;;8.41;77.72;100124.84;5056329;28;20245;-60
2023/04/18 08:57:04;;;;;;;13.07;8.65;;;;;;;8.50;76.94;100120.94;5059107;28;20068;-58
2023/04/18 08:59:34;;;;;;;13.23;8.65;;;;;;;8.93;76.10;100131.13;5058070;28;20040;-58
2023/04/18 09:02:03;;;;;;;12.27;8.20;;;;;;;8.75;76.41;100129.13;5053429;28;20077;-60
2023/04/18 09:04:34;;;;;;;14.73;8.75;;;;;;;9.39;74.38;100119.47;5050006;28;20044;-59
2023/04/18 09:07:02;;;;;;;15.70;8.02;;;;;;;10.02;71.94;100118.69;5057146;28;20040;-59
2023/04/18 09:09:41;;;;;;;12.88;8.15;;;;;;;10.08;70.74;100120.53;5048889;28;20067;-60
2023/04/18 09:12:10;;;;;;;13.17;7.77;;;;;;;9.65;72.39;100117.69;5053429;28;20045;-59
2023/04/18 09:14:41;;;;;;;12.32;7.70;;;;;;;9.42;72.85;100124.41;5055721;28;20041;-60
2023/04/18 09:17:12;;;;;;;14.30;8.38;;;;;;;9.46;74.36;100114.91;5056970;28;20044;-59
2023/04/18 09:19:47;;;;;;;13.38;9.25;;;;;;;9.96;72.15;100118.72;5051372;28;20167;-60
2023/04/18 09:22:14;;;;;;;14.82;8.60;;;;;;;11.23;68.34;100108.47;5056517;28;20045;-59
2023/04/18 09:24:47;;;;;;;9.07;5.97;;;;;;;10.14;69.66;100111.59;5051777;28;20099;-60
2023/04/18 09:27:15;;;;;;;13.07;8.77;;;;;;;10.07;72.32;100110.81;5044699;28;20055;-59
2023/04/18 09:29:45;;;;;;;14.63;9.68;;;;;;;9.31;74.16;100119.72;5056271;28;20387;-59
2023/04/18 09:32:19;;;;;;;;;;;;;;;9.74;72.98;100126.31;5060196;28;20238;-59
2023/04/18 09:34:46;;;;;;;12.32;8.25;;;;;;;9.96;72.11;100108.84;5062414;28;19932;-59
2023/04/18 09:37:14;;;;;;;13.80;8.65;;;;;;;9.97;72.85;100126.56;5049931;28;20045;-59
2023/04/18 09:39:44;;;;;;;13.95;8.68;;;;;;;9.86;72.79;100119.19;5057340;28;20041;-59
2023/04/18 09:42:11;;;;;;;13.50;8.52;;;;;;;9.84;72.97;100122.09;5049402;28;20115;-59
2023/04/18 09:44:38;;;;;;;15.57;8.70;;;;;;;9.50;73.84;100116.13;5050714;28;20136;-59
2023/04/18 09:47:06;;;;;;;15.55;9.52;;;;;;;9.67;73.79;100119.13;5055189;28;20128;-59
2023/04/18 09:49:34;;;;;;;14.18;9.57;;;;;;;9.88;74.38;100109.09;5048022;28;20126;-60
2023/04/18 09:52:02;;;;;;;14.20;9.05;;;;;;;10.07;73.05;100120.72;5054510;28;20230;-59
2023/04/18 09:54:29;;;;;;;11.88;8.13;;;;;;;9.73;73.54;100120.09;5050454;28;20045;-59
2023/04/18 09:56:57;;;;;;;12.63;8.32;;;;;;;9.70;73.93;100115.19;5055483;28;20067;-59
2023/04/18 09:59:32;;;;;;;14.10;8.80;;;;;;;9.79;73.17;100113.09;5053825;28;20095;-59
2023/04/18 10:01:59;;;;;;;13.43;8.85;;;;;;;9.90;73.23;100120.41;5052321;28;20499;-59
2023/04/18 10:04:26;;;;;;;13.00;8.38;;;;;;;9.96;73.78;100113.38;5052011;28;20052;-59
2023/04/18 10:06:54;;;;;;;13.68;9.02;;;;;;;9.72;74.59;100113.94;5070166;28;20144;-59
2023/04/18 10:09:21;;;;;;;12.50;8.35;;;;;;;10.09;73.37;100114.13;5054944;28;20517;-60
2023/04/18 10:11:48;;;;;;;14.93;8.68;;;;;;;10.50;72.66;100118.13;5056361;28;20480;-60
2023/04/18 10:14:16;;;;;;;13.20;9.40;;;;;;;10.54;72.92;100113.97;5051271;28;20071;-59
2023/04/18 10:16:44;;;;;;;13.23;8.68;;;;;;;10.85;70.41;100114.91;5059508;28;20048;-59
2023/04/18 10:19:21;;;;;;;12.65;9.15;;;;;;;10.48;71.45;100100.63;5053322;28;20041;-60
2023/04/18 10:21:57;;;;;;;13.50;8.52;;;;;;;10.48;71.09;100106.81;5056890;28;20075;-60
2023/04/18 10:24:48;;;;;;;14.40;8.30;;;;;;;10.73;71.36;100114.00;5060546;28;20048;-59
2023/04/18 10:27:16;;;;;;;13.40;9.15;;;;;;;10.78;71.58;100108.78;5042173;28;20037;-59
2023/04/18 10:29:47;;;;;;;12.65;9.50;;;;;;;10.10;73.20;100105.03;5050674;28;20116;-58
2023/04/18 10:32:14;;;;;;;12.93;8.93;;;;;;;10.49;72.97;100107.63;5054485;28;20048;-59
2023/04/18 10:34:41;;;;;;;12.25;8.15;;;;;;;10.38;73.04;100111.03;5056699;28;20112;-59
2023/04/18 10:37:11;;;;;;;13.13;9.57;;;;;;;10.09;74.26;100114.13;5060768;28;20122;-60
2023/04/18 10:39:49;;;;;;;12.68;9.30;;;;;;;10.29;74.08;100110.50;5058801;28;20525;-60
2023/04/18 10:42:16;;;;;;;13.30;8.52;;;;;;;10.64;72.93;100100.06;5059728;28;20327;-59
2023/04/18 10:44:43;;;;;;;14.18;9.20;;;;;;;11.00;70.85;100101.94;5053733;28;20116;-58
2023/04/18 10:47:23;;;;;;;14.65;9.27;;;;;;;10.84;72.23;100105.22;5057970;28;20044;-60
2023/04/18 10:49:57;;;;;;;15.20;9.63;;;;;;;10.91;71.65;100100.63;5058839;28;20045;-60
2023/04/18 10:52:26;;;;;;;13.82;8.32;;;;;;;11.32;70.27;100096.41;5053003;28;20281;-59
2023/04/18 10:54:57;;;;;;;12.57;8.32;;;;;;;11.66;68.40;100086.06;5055870;28;20495;-60
2023/04/18 10:57:24;;;;;;;;;;;;;;;11.71;68.52;100083.50;5057812;28;20041;-60
2023/04/18 10:59:51;;;;;;;11.38;7.65;;;;;;;11.76;68.63;100078.25;5048489;28;19925;-59
2023/04/18 11:02:23;;;;;;;12.82;8.80;;;;;;;11.67;69.40;100076.94;5057201;28;20033;-60
2023/04/18 11:04:51;;;;;;;14.60;8.57;;;;;;;11.23;71.02;100087.00;5054961;28;20600;-60
2023/04/18 11:07:18;;;;;;;14.18;9.13;;;;;;;11.34;70.43;100077.41;5049329;28;20439;-60
2023/04/18 11:09:53;;;;;;;13.98;10.05;;;;;;;11.33;71.30;100083.78;5053624;28;20068;-58
2023/04/18 11:12:20;;;;;;;13.75;9.15;;;;;;;11.25;71.58;100087.63;5057916;28;20040;-60
2023/04/18 11:14:48;;;;;;;13.02;8.68;;;;;;;11.49;71.75;100072.44;5061094;28;20040;-60
2023/04/18 11:17:17;;;;;;;15.68;9.65;;;;;;;11.21;72.18;100078.41;5052157;28;20072;-60
2023/04/18 11:19:44;;;;;;;15.07;8.75;;;;;;;11.05;72.14;100079.00;5055739;28;20147;-60
2023/04/18 11:22:12;;;;;;;13.85;9.23;;;;;;;11.33;71.77;100071.22;5055472;28;20047;-59
2023/04/18 11:24:39;;;;;;;14.40;9.75;;;;;;;11.25;71.59;100074.19;5055996;28;20037;-59
2023/04/18 11:27:08;;;;;;;11.13;7.47;;;;;;;11.37;70.65;100077.75;5057421;28;20037;-59
2023/04/18 11:29:35;;;;;;;12.85;8.27;;;;;;;11.53;69.98;100065.59;5052835;28;20052;-59